Time;durP1;ratioP1;P1;durP2;ratioP2;P2;SDS_P1;SDS_P2;PMS_P1;PMS_P2;Temp;Humidity;BMP_temperature;BMP_pressure;BME280_temperature;BME280_humidity;BME280_pressure;Samples;Min_cycle;Max_cycle;Signal;HPM_P1;HPM_P2
2022/09/05 00:02:35;;;;;;;4.47;2.73;;;19.80;94.30;;;;;;5030459;28;20433;-82
2022/09/05 00:05:40;;;;;;;5.70;3.13;;;19.80;94.20;;;;;;5030115;28;20081;-82
2022/09/05 00:08:32;;;;;;;6.60;2.95;;;19.80;94.40;;;;;;5031059;28;20061;-83
2022/09/05 00:11:21;;;;;;;5.50;2.83;;;19.80;94.40;;;;;;5002183;28;20053;-82
2022/09/05 00:14:25;;;;;;;9.07;2.80;;;19.70;94.40;;;;;;5029956;28;20140;-82
2022/09/05 00:17:32;;;;;;;6.07;3.00;;;19.70;94.40;;;;;;5012298;28;20144;-82
2022/09/05 00:20:27;;;;;;;5.97;2.92;;;19.70;94.60;;;;;;5015896;28;20065;-84
2022/09/05 00:23:39;;;;;;;10.43;2.92;;;19.70;94.60;;;;;;5012859;28;20049;-82
2022/09/05 00:27:07;;;;;;;8.77;3.03;;;19.70;94.80;;;;;;5031167;28;20191;-83
2022/09/05 00:30:16;;;;;;;5.05;2.75;;;19.60;94.70;;;;;;5008479;28;20045;-81
2022/09/05 00:33:21;;;;;;;7.20;3.60;;;19.60;94.90;;;;;;5011859;28;20074;-82
2022/09/05 00:36:26;;;;;;;6.10;2.75;;;19.60;94.90;;;;;;5008836;28;20046;-82
2022/09/05 00:39:27;;;;;;;6.10;3.42;;;19.60;94.80;;;;;;5008505;28;20136;-81
2022/09/05 00:42:17;;;;;;;4.72;2.63;;;19.50;94.90;;;;;;5009553;28;20049;-81
2022/09/05 00:45:07;;;;;;;9.65;2.85;;;19.50;95.00;;;;;;4983384;28;20132;-82
2022/09/05 00:47:58;;;;;;;8.07;3.20;;;19.50;95.20;;;;;;5009925;28;20042;-82
2022/09/05 00:50:56;;;;;;;6.07;3.63;;;19.40;95.20;;;;;;5009200;28;20069;-81
2022/09/05 00:53:52;;;;;;;7.72;3.88;;;19.40;95.50;;;;;;5010629;28;20085;-82
2022/09/05 00:56:55;;;;;;;5.85;3.28;;;19.40;95.50;;;;;;5009761;28;20493;-82
2022/09/05 00:59:56;;;;;;;8.68;3.60;;;19.30;95.60;;;;;;5009297;28;20111;-82
2022/09/05 01:03:16;;;;;;;8.57;3.70;;;19.30;95.60;;;;;;5010990;28;20069;-80
2022/09/05 01:06:46;;;;;;;9.18;3.97;;;19.30;95.80;;;;;;5015816;28;20050;-81
2022/09/05 01:10:02;;;;;;;8.18;4.00;;;19.20;95.90;;;;;;5013639;28;20141;-85
2022/09/05 01:12:48;;;;;;;7.75;3.70;;;19.20;96.00;;;;;;5013721;28;20560;-80
2022/09/05 01:16:12;;;;;;;8.90;3.53;;;19.10;96.00;;;;;;5014668;28;20049;-81
2022/09/05 01:19:46;;;;;;;7.80;3.55;;;19.10;96.30;;;;;;5014692;28;20108;-88
2022/09/05 01:22:35;;;;;;;7.07;4.25;;;19.10;96.20;;;;;;4998242;28;20054;-86
2022/09/05 01:25:53;;;;;;;6.85;3.85;;;19.00;96.40;;;;;;5014424;28;20046;-84
2022/09/05 01:29:25;;;;;;;7.57;3.53;;;19.00;96.60;;;;;;5012008;28;20050;-84
2022/09/05 01:32:32;;;;;;;9.70;3.58;;;19.00;96.70;;;;;;4991277;28;20105;-81
2022/09/05 01:35:27;;;;;;;5.97;3.67;;;18.90;96.70;;;;;;4992284;28;20046;-81
2022/09/05 01:38:22;;;;;;;6.72;3.35;;;18.90;97.00;;;;;;5013129;28;20099;-81
2022/09/05 01:41:35;;;;;;;8.73;3.67;;;18.90;96.90;;;;;;5013954;28;20049;-88
2022/09/05 01:44:30;;;;;;;6.57;3.38;;;18.80;97.10;;;;;;5013124;28;20049;-83
2022/09/05 01:47:22;;;;;;;7.18;4.18;;;18.80;97.30;;;;;;5014444;28;20050;-81
2022/09/05 01:50:19;;;;;;;6.40;3.95;;;18.70;97.30;;;;;;5012427;28;20061;-85
2022/09/05 01:53:45;;;;;;;6.00;3.60;;;18.70;97.50;;;;;;5012534;28;20103;-81
2022/09/05 01:56:40;;;;;;;7.80;3.50;;;18.60;97.70;;;;;;5010881;28;20050;-80
2022/09/05 01:59:43;;;;;;;6.95;3.15;;;18.60;97.90;;;;;;5012252;28;20520;-81
2022/09/05 02:02:55;;;;;;;8.73;4.28;;;18.50;97.80;;;;;;5014850;28;20049;-82
2022/09/05 02:06:19;;;;;;;6.68;4.15;;;18.50;98.20;;;;;;5012109;28;20137;-80
2022/09/05 02:09:44;;;;;;;7.18;4.00;;;18.40;98.30;;;;;;5015892;28;20470;-82
2022/09/05 02:12:43;;;;;;;6.50;3.72;;;18.40;98.20;;;;;;5012239;28;20120;-81
2022/09/05 02:15:43;;;;;;;6.88;3.72;;;18.30;98.30;;;;;;5011526;28;20510;-82
2022/09/05 02:18:36;;;;;;;7.38;3.70;;;18.30;98.40;;;;;;5013591;28;20057;-81
2022/09/05 02:21:37;;;;;;;6.82;4.00;;;18.30;98.50;;;;;;5013659;28;20543;-82
2022/09/05 02:24:33;;;;;;;8.02;3.72;;;18.20;98.50;;;;;;5014410;28;20049;-81
2022/09/05 02:27:26;;;;;;;9.65;4.25;;;18.20;98.40;;;;;;5012812;28;20053;-82
2022/09/05 02:30:24;;;;;;;5.93;3.63;;;18.20;98.70;;;;;;5013471;28;20072;-80
2022/09/05 02:33:21;;;;;;;7.43;3.78;;;18.10;98.80;;;;;;5011345;28;20073;-85
2022/09/05 02:36:21;;;;;;;7.25;4.03;;;18.10;98.80;;;;;;5011613;28;20398;-84
2022/09/05 02:39:35;;;;;;;6.97;4.13;;;18.10;99.00;;;;;;5010840;28;20085;-85
2022/09/05 02:42:31;;;;;;;6.60;3.80;;;18.00;99.10;;;;;;5011753;28;20508;-85
2022/09/05 02:45:32;;;;;;;8.10;4.40;;;17.90;99.20;;;;;;5013126;28;20057;-81
2022/09/05 02:49:03;;;;;;;6.20;3.60;;;17.90;99.20;;;;;;5012334;28;20555;-81
2022/09/05 02:51:52;;;;;;;9.88;4.30;;;17.80;99.40;;;;;;5010297;28;20474;-82
2022/09/05 02:54:42;;;;;;;9.80;4.50;;;17.80;99.50;;;;;;5011420;28;20045;-85
2022/09/05 02:58:00;;;;;;;7.40;4.63;;;17.70;99.50;;;;;;5011487;28;20054;-85
2022/09/05 03:00:57;;;;;;;6.13;4.07;;;17.70;99.70;;;;;;5010996;28;20061;-82
2022/09/05 03:03:55;;;;;;;10.75;3.97;;;17.70;99.80;;;;;;5010480;28;20046;-82
2022/09/05 03:07:11;;;;;;;7.10;4.57;;;17.60;99.90;;;;;;5010950;28;20142;-81
2022/09/05 03:10:20;;;;;;;7.45;4.07;;;17.60;99.90;;;;;;5013652;28;20046;-82
2022/09/05 03:13:18;;;;;;;8.88;4.57;;;17.60;99.90;;;;;;5010992;28;20061;-81
2022/09/05 03:16:39;;;;;;;7.78;4.05;;;17.50;99.90;;;;;;5010127;28;20054;-83
2022/09/05 03:19:49;;;;;;;9.45;4.18;;;17.50;99.90;;;;;;5012294;28;20053;-81
2022/09/05 03:22:49;;;;;;;5.32;3.80;;;17.50;99.90;;;;;;5010157;28;20056;-86
2022/09/05 03:25:56;;;;;;;8.00;4.75;;;17.40;99.90;;;;;;4996383;28;20057;-83
2022/09/05 03:29:10;;;;;;;7.18;4.30;;;17.40;99.90;;;;;;5010109;28;20085;-81
2022/09/05 03:31:59;;;;;;;7.70;4.72;;;17.30;99.90;;;;;;5014465;28;20056;-84
2022/09/05 03:34:57;;;;;;;8.48;4.28;;;17.30;99.90;;;;;;5014338;28;20497;-82
2022/09/05 03:37:53;;;;;;;6.85;4.40;;;17.30;99.90;;;;;;5011570;28;20049;-82
2022/09/05 03:40:45;;;;;;;8.35;4.78;;;17.20;99.90;;;;;;5011510;28;20042;-82
2022/09/05 03:44:11;;;;;;;15.43;5.43;;;17.20;99.90;;;;;;5011448;28;20056;-82
2022/09/05 03:47:22;;;;;;;5.93;4.13;;;17.20;99.90;;;;;;5012959;28;20137;-82
2022/09/05 03:50:30;;;;;;;8.55;4.53;;;17.10;99.90;;;;;;5010022;28;20103;-81
2022/09/05 03:53:31;;;;;;;7.15;4.40;;;17.10;99.90;;;;;;5010107;28;20050;-81
2022/09/05 03:56:37;;;;;;;9.13;4.45;;;17.10;99.90;;;;;;5010764;28;20136;-82
2022/09/05 03:59:52;;;;;;;9.52;5.78;;;17.00;99.90;;;;;;5011122;28;20049;-84
2022/09/05 04:03:00;;;;;;;8.35;4.65;;;17.00;99.90;;;;;;5014100;28;20045;-82
2022/09/05 04:06:11;;;;;;;6.93;4.80;;;16.90;99.90;;;;;;5013775;28;20550;-80
2022/09/05 04:09:25;;;;;;;6.82;4.80;;;16.80;99.90;;;;;;5010056;28;20054;-82
2022/09/05 04:12:41;;;;;;;8.82;4.95;;;16.80;99.90;;;;;;5011409;28;20049;-82
2022/09/05 04:15:37;;;;;;;11.05;5.28;;;16.70;99.90;;;;;;5010656;28;20120;-80
2022/09/05 04:18:45;;;;;;;8.82;5.18;;;16.70;99.90;;;;;;5011119;28;20052;-82
2022/09/05 04:21:35;;;;;;;8.32;4.90;;;16.60;99.90;;;;;;5014864;28;20402;-82
2022/09/05 04:24:50;;;;;;;10.35;5.43;;;16.60;99.90;;;;;;5018106;28;20049;-83
2022/09/05 04:27:58;;;;;;;6.88;4.85;;;16.60;99.90;;;;;;5024164;28;20551;-83
2022/09/05 04:30:56;;;;;;;9.73;5.38;;;16.50;99.90;;;;;;5012049;28;20049;-83
2022/09/05 04:34:07;;;;;;;7.68;5.28;;;16.50;99.90;;;;;;5011380;28;20064;-87
2022/09/05 04:37:06;;;;;;;8.75;4.90;;;16.40;99.90;;;;;;5010094;28;20057;-86
2022/09/05 04:39:52;;;;;;;7.80;5.28;;;16.40;99.90;;;;;;5009451;28;20116;-86
2022/09/05 04:42:39;;;;;;;8.65;5.15;;;16.30;99.90;;;;;;5012094;28;20128;-82
2022/09/05 04:45:29;;;;;;;7.88;5.13;;;16.30;99.90;;;;;;5010607;28;20054;-83
2022/09/05 04:48:24;;;;;;;8.40;4.95;;;16.30;99.90;;;;;;5009804;28;20050;-84
2022/09/05 04:51:37;;;;;;;6.32;4.78;;;16.30;99.90;;;;;;5010393;28;20072;-81
2022/09/05 04:54:45;;;;;;;10.57;5.65;;;16.20;99.90;;;;;;5009671;28;20100;-84
2022/09/05 04:57:50;;;;;;;8.07;5.18;;;16.20;99.90;;;;;;5009729;28;20494;-82
2022/09/05 05:00:46;;;;;;;9.38;5.57;;;16.20;99.90;;;;;;5008732;28;20506;-82
2022/09/05 05:03:35;;;;;;;6.95;5.45;;;16.20;99.90;;;;;;5011258;28;20132;-85
2022/09/05 05:06:34;;;;;;;9.00;5.82;;;16.20;99.90;;;;;;5009745;28;20077;-82
2022/09/05 05:09:39;;;;;;;8.18;4.97;;;16.20;99.90;;;;;;5009139;28;20482;-82
2022/09/05 05:12:46;;;;;;;11.15;5.47;;;16.30;99.90;;;;;;5008574;28;20050;-80
2022/09/05 05:15:44;;;;;;;7.53;4.70;;;16.20;99.90;;;;;;5008907;28;20055;-82
2022/09/05 05:18:40;;;;;;;6.95;5.30;;;16.20;99.90;;;;;;5010904;28;20410;-82
2022/09/05 05:21:29;;;;;;;7.57;5.25;;;16.30;99.90;;;;;;5012950;28;20136;-82
2022/09/05 05:24:20;;;;;;;7.45;5.00;;;16.30;99.90;;;;;;5010037;28;20076;-82
2022/09/05 05:27:09;;;;;;;7.13;5.30;;;16.30;99.90;;;;;;4996442;28;20054;-84
2022/09/05 05:30:11;;;;;;;8.60;5.20;;;16.30;99.90;;;;;;5031042;28;20053;-83
2022/09/05 05:33:01;;;;;;;6.95;4.95;;;16.30;99.90;;;;;;5016738;28;20038;-84
2022/09/05 05:35:49;;;;;;;9.20;5.95;;;16.40;99.90;;;;;;5033551;28;20049;-83
2022/09/05 05:38:47;;;;;;;6.63;4.97;;;16.40;99.90;;;;;;5032742;28;20474;-82
2022/09/05 05:41:48;;;;;;;8.18;5.60;;;16.40;99.90;;;;;;5032515;28;20493;-83
2022/09/05 05:44:37;;;;;;;7.88;5.30;;;16.50;99.90;;;;;;5035518;28;20058;-83
2022/09/05 05:47:35;;;;;;;7.13;5.05;;;16.50;99.90;;;;;;5031770;28;20049;-82
2022/09/05 05:50:50;;;;;;;7.80;5.68;;;16.60;99.90;;;;;;5035996;28;20045;-83
2022/09/05 05:54:02;;;;;;;9.20;5.93;;;16.60;99.90;;;;;;5019489;28;20374;-82
2022/09/05 05:57:09;;;;;;;12.52;5.57;;;16.60;99.90;;;;;;5034537;28;20108;-82
2022/09/05 06:00:17;;;;;;;7.68;5.65;;;16.70;99.90;;;;;;5034141;28;20072;-80
2022/09/05 06:03:48;;;;;;;9.75;5.97;;;16.80;99.90;;;;;;5034191;28;20095;-80
2022/09/05 06:07:11;;;;;;;13.23;6.57;;;16.80;99.90;;;;;;5015081;28;20065;-81
2022/09/05 06:10:16;;;;;;;8.13;5.63;;;16.90;99.90;;;;;;5020464;28;20183;-82
2022/09/05 06:13:40;;;;;;;11.37;5.73;;;17.00;99.90;;;;;;5014788;28;20076;-82
2022/09/05 06:16:40;;;;;;;12.75;6.13;;;17.10;99.90;;;;;;5034085;28;20140;-82
2022/09/05 06:19:47;;;;;;;10.30;5.57;;;17.10;99.90;;;;;;5033212;28;20056;-80
2022/09/05 06:22:39;;;;;;;11.98;6.45;;;17.20;99.90;;;;;;5032087;28;20067;-80
2022/09/05 06:25:35;;;;;;;13.45;6.93;;;17.20;99.90;;;;;;5013998;28;20053;-80
2022/09/05 06:28:29;;;;;;;10.00;5.65;;;17.30;99.90;;;;;;5032046;28;20056;-82
2022/09/05 06:31:36;;;;;;;10.10;5.47;;;17.50;99.90;;;;;;5032497;28;20053;-82
2022/09/05 06:34:28;;;;;;;9.60;6.20;;;17.60;99.90;;;;;;5031665;28;20061;-84
2022/09/05 06:37:21;;;;;;;9.35;5.90;;;17.70;99.90;;;;;;5032215;28;20401;-81
2022/09/05 06:40:33;;;;;;;12.07;5.75;;;17.80;99.90;;;;;;5032045;28;20041;-81
2022/09/05 06:43:50;;;;;;;14.23;6.20;;;18.00;99.90;;;;;;5014233;28;20060;-84
2022/09/05 06:46:39;;;;;;;17.17;6.22;;;18.20;99.90;;;;;;5013941;28;20136;-81
2022/09/05 06:49:28;;;;;;;13.73;6.05;;;18.40;99.90;;;;;;5031208;28;20064;-81
2022/09/05 06:52:39;;;;;;;11.57;5.88;;;18.60;99.90;;;;;;5018295;28;20045;-81
2022/09/05 06:55:59;;;;;;;10.25;6.22;;;18.80;99.90;;;;;;5032407;28;20045;-81
2022/09/05 06:59:01;;;;;;;8.07;4.93;;;19.00;99.90;;;;;;5032199;28;20140;-80
2022/09/05 07:01:55;;;;;;;8.32;5.40;;;19.10;99.90;;;;;;5031803;28;20099;-81
2022/09/05 07:04:52;;;;;;;8.30;5.90;;;19.20;99.90;;;;;;5031074;28;20567;-82
2022/09/05 07:07:44;;;;;;;9.75;5.55;;;19.20;99.90;;;;;;5013951;28;20409;-80
2022/09/05 07:10:39;;;;;;;10.98;6.30;;;19.20;99.90;;;;;;5031707;28;20049;-80
2022/09/05 07:13:56;;;;;;;9.18;5.50;;;19.20;99.90;;;;;;5013139;28;20053;-80
2022/09/05 07:17:04;;;;;;;8.07;5.38;;;19.40;99.90;;;;;;5032065;28;20104;-82
2022/09/05 07:19:50;;;;;;;9.88;5.88;;;19.70;99.90;;;;;;5031197;28;20131;-80
2022/09/05 07:22:48;;;;;;;14.35;6.30;;;19.90;99.80;;;;;;5031581;28;20053;-82
2022/09/05 07:25:35;;;;;;;9.00;6.28;;;20.20;99.50;;;;;;5032123;28;20049;-82
2022/09/05 07:28:21;;;;;;;10.80;5.97;;;20.40;99.20;;;;;;5031780;28;20056;-82
2022/09/05 07:31:25;;;;;;;12.10;6.07;;;20.60;98.80;;;;;;5034356;28;20129;-81
2022/09/05 07:34:23;;;;;;;8.05;5.72;;;20.80;98.10;;;;;;4988876;28;20045;-82
2022/09/05 07:37:11;;;;;;;9.02;5.25;;;20.90;97.90;;;;;;5033212;28;20140;-80
2022/09/05 07:39:59;;;;;;;8.27;6.00;;;21.10;97.80;;;;;;5033789;28;20053;-82
2022/09/05 07:42:56;;;;;;;10.07;5.57;;;21.20;97.60;;;;;;5014724;28;20064;-81
2022/09/05 07:45:50;;;;;;;10.52;5.72;;;21.40;97.30;;;;;;5030943;28;20483;-84
2022/09/05 07:48:45;;;;;;;10.43;5.03;;;21.60;97.10;;;;;;5031427;28;20111;-82
2022/09/05 07:51:38;;;;;;;8.80;5.75;;;21.80;97.00;;;;;;5031576;28;20136;-83
2022/09/05 07:54:31;;;;;;;7.85;5.65;;;22.00;96.90;;;;;;5031359;28;20048;-81
2022/09/05 07:57:21;;;;;;;9.10;5.53;;;22.10;96.60;;;;;;5033322;28;20057;-82
2022/09/05 08:00:18;;;;;;;8.30;6.15;;;22.40;96.50;;;;;;5031464;28;20123;-81
2022/09/05 08:03:12;;;;;;;8.43;6.13;;;22.50;96.30;;;;;;5031357;28;20057;-84
2022/09/05 08:06:04;;;;;;;11.95;6.13;;;22.50;96.00;;;;;;5013147;28;20461;-81
2022/09/05 08:09:07;;;;;;;9.13;6.40;;;22.70;95.90;;;;;;5030789;28;20053;-83
2022/09/05 08:12:00;;;;;;;9.90;5.97;;;22.80;95.20;;;;;;5011418;28;20416;-79
2022/09/05 08:15:25;;;;;;;10.40;6.50;;;22.90;95.50;;;;;;5012084;28;20049;-82
2022/09/05 08:18:23;;;;;;;15.73;7.93;;;23.00;95.00;;;;;;5031274;28;20052;-80
2022/09/05 08:21:22;;;;;;;11.95;6.82;;;23.20;95.10;;;;;;5030121;28;20053;-81
2022/09/05 08:24:23;;;;;;;10.02;6.53;;;23.30;94.90;;;;;;5000013;28;20097;-81
2022/09/05 08:27:24;;;;;;;8.38;5.60;;;23.50;95.10;;;;;;4999173;28;20046;-80
2022/09/05 08:30:11;;;;;;;13.85;6.20;;;23.60;95.10;;;;;;5030467;28;20053;-82
2022/09/05 08:33:08;;;;;;;12.00;6.03;;;23.70;94.80;;;;;;5014188;28;20085;-82
2022/09/05 08:36:29;;;;;;;14.70;6.93;;;23.70;94.60;;;;;;5012900;28;20456;-81
2022/09/05 08:39:20;;;;;;;13.48;6.07;;;23.80;94.40;;;;;;4992366;28;20076;-82
2022/09/05 08:42:22;;;;;;;9.00;6.07;;;24.10;94.30;;;;;;5031568;28;20049;-82
2022/09/05 08:45:26;;;;;;;8.70;5.88;;;24.10;94.10;;;;;;5016867;28;20123;-83
2022/09/05 08:48:39;;;;;;;16.13;5.32;;;24.30;93.80;;;;;;5012854;28;20436;-83
2022/09/05 08:52:06;;;;;;;8.98;6.00;;;24.50;93.70;;;;;;5030117;28;20049;-82
2022/09/05 08:54:55;;;;;;;8.88;5.85;;;24.60;93.70;;;;;;5028826;28;20076;-84
2022/09/05 08:57:45;;;;;;;11.80;6.10;;;24.80;93.50;;;;;;5012203;28;20241;-83
2022/09/05 09:01:02;;;;;;;11.73;6.38;;;25.00;93.30;;;;;;5013393;28;20041;-82
2022/09/05 09:04:18;;;;;;;12.68;6.45;;;25.30;92.90;;;;;;5017153;28;20084;-81
2022/09/05 09:07:07;;;;;;;9.90;6.10;;;25.50;92.70;;;;;;4998876;28;20417;-80
2022/09/05 09:10:17;;;;;;;8.20;5.50;;;25.80;92.60;;;;;;5015791;28;20068;-81
2022/09/05 09:13:13;;;;;;;11.35;6.38;;;26.00;92.20;;;;;;5013093;28;20049;-82
2022/09/05 09:16:16;;;;;;;10.10;5.05;;;26.00;91.60;;;;;;5029287;28;20045;-84
2022/09/05 09:19:11;;;;;;;8.85;5.10;;;26.00;91.50;;;;;;5011402;28;20065;-85
2022/09/05 09:22:12;;;;;;;12.00;5.18;;;26.20;91.60;;;;;;5031923;28;20046;-81
2022/09/05 09:25:15;;;;;;;8.65;4.53;;;26.40;91.40;;;;;;5034814;28;20444;-81
2022/09/05 09:28:12;;;;;;;10.07;5.07;;;26.60;91.30;;;;;;5038379;28;20064;-83
2022/09/05 09:31:06;;;;;;;9.30;5.20;;;26.80;91.00;;;;;;5035156;28;20482;-89
2022/09/05 09:34:19;;;;;;;6.22;4.00;;;27.00;90.70;;;;;;5016923;28;20056;-90
2022/09/05 09:37:36;;;;;;;7.80;4.60;;;27.20;90.40;;;;;;5017337;28;20091;-89
2022/09/05 09:40:40;;;;;;;12.50;5.05;;;27.70;89.60;;;;;;5037202;28;20045;-88
2022/09/05 09:43:46;;;;;;;9.02;4.47;;;27.80;89.30;;;;;;5022318;28;20045;-84
2022/09/05 09:46:45;;;;;;;8.07;3.67;;;28.00;87.70;;;;;;5017048;28;20060;-83
2022/09/05 09:50:01;;;;;;;8.48;3.33;;;28.10;88.00;;;;;;5019406;28;20053;-86
2022/09/05 09:53:18;;;;;;;7.65;4.20;;;28.30;87.60;;;;;;5001562;28;20168;-81
2022/09/05 09:56:31;;;;;;;7.35;3.10;;;28.40;87.30;;;;;;5037554;28;20446;-86
2022/09/05 09:59:23;;;;;;;8.10;3.25;;;28.60;85.80;;;;;;5039291;28;20477;-83
2022/09/05 10:02:23;;;;;;;6.63;3.35;;;28.90;86.20;;;;;;5022539;28;20052;-86
2022/09/05 10:05:30;;;;;;;7.13;2.28;;;29.10;85.30;;;;;;5022103;28;20053;-91
2022/09/05 10:08:38;;;;;;;7.03;2.67;;;29.40;84.60;;;;;;5040633;28;20497;-89
2022/09/05 10:12:21;;;;;;;4.40;2.70;;;29.50;84.10;;;;;;5024859;28;20049;-88
2022/09/05 10:15:20;;;;;;;5.38;2.83;;;29.50;82.80;;;;;;4921065;29;20071;-83
2022/09/05 10:18:33;;;;;;;7.22;2.33;;;29.60;82.60;;;;;;4924484;29;20056;-81
2022/09/05 10:21:43;;;;;;;7.07;2.67;;;29.80;82.40;;;;;;5035414;28;20115;-88
2022/09/05 10:24:59;;;;;;;4.70;2.40;;;29.80;81.10;;;;;;5035409;28;20057;-83
2022/09/05 10:28:10;;;;;;;9.73;2.90;;;30.10;80.50;;;;;;5020311;28;20058;-82
2022/09/05 10:31:20;;;;;;;6.07;2.72;;;30.30;79.60;;;;;;5015405;28;20042;-86
2022/09/05 10:34:22;;;;;;;4.43;2.50;;;30.50;79.70;;;;;;5017524;28;20053;-84
2022/09/05 10:37:12;;;;;;;6.15;3.20;;;30.80;80.00;;;;;;5003557;28;20133;-84
2022/09/05 10:40:04;;;;;;;5.53;2.40;;;31.00;78.80;;;;;;5013710;28;20052;-87
2022/09/05 10:42:57;;;;;;;5.22;2.70;;;31.10;78.50;;;;;;5014763;28;20147;-82
2022/09/05 10:45:48;;;;;;;4.80;2.92;;;31.30;77.90;;;;;;5016396;28;20050;-82
2022/09/05 10:48:47;;;;;;;8.80;3.53;;;31.60;76.70;;;;;;5002682;28;20153;-82
2022/09/05 10:51:48;;;;;;;6.90;2.63;;;31.80;76.50;;;;;;5015408;28;20077;-86
2022/09/05 10:55:01;;;;;;;8.23;3.20;;;32.10;76.30;;;;;;5016494;28;20042;-93
2022/09/05 10:58:03;;;;;;;8.40;2.20;;;32.20;74.60;;;;;;5012900;28;20460;-81
2022/09/05 11:01:09;;;;;;;4.78;2.10;;;32.40;74.60;;;;;;5017713;28;20069;-87
2022/09/05 11:04:35;;;;;;;6.63;2.03;;;32.40;73.10;;;;;;5012185;28;20057;-86
2022/09/05 11:07:25;;;;;;;6.75;1.90;;;32.60;73.80;;;;;;4961019;28;20034;-83
2022/09/05 11:10:37;;;;;;;5.85;1.80;;;33.10;72.40;;;;;;5012296;28;20050;-82
2022/09/05 11:13:29;;;;;;;4.80;2.13;;;33.30;71.90;;;;;;5012057;28;20054;-88
2022/09/05 11:16:25;;;;;;;5.38;1.90;;;33.50;69.80;;;;;;5013637;28;20058;-84
2022/09/05 11:19:17;;;;;;;4.35;1.58;;;33.70;68.80;;;;;;5012685;28;20498;-81
2022/09/05 11:22:06;;;;;;;5.82;1.85;;;34.00;68.10;;;;;;5014387;28;20448;-81
2022/09/05 11:24:56;;;;;;;5.60;2.38;;;33.90;65.60;;;;;;5001333;28;20113;-92
2022/09/05 11:27:52;;;;;;;4.68;1.50;;;34.00;65.90;;;;;;4998667;28;20045;-85
2022/09/05 11:30:42;;;;;;;4.13;1.48;;;34.30;62.30;;;;;;5033984;28;20046;-82
2022/09/05 11:33:46;;;;;;;4.97;1.70;;;34.50;63.30;;;;;;5037523;28;20124;-89
2022/09/05 11:36:47;;;;;;;4.88;1.77;;;34.90;62.80;;;;;;5016702;28;20057;-85
2022/09/05 11:40:09;;;;;;;3.42;1.50;;;35.20;63.30;;;;;;5015877;28;20045;-81
2022/09/05 11:42:55;;;;;;;3.15;1.35;;;35.60;61.00;;;;;;4919424;29;20073;-82
2022/09/05 11:46:13;;;;;;;8.15;1.83;;;35.80;61.20;;;;;;5016191;28;20056;-93
2022/09/05 11:49:17;;;;;;;4.22;1.48;;;35.70;57.70;;;;;;5022742;28;20540;-80
2022/09/05 11:52:13;;;;;;;;;;;35.90;58.40;;;;;;5015352;28;20050;-82
2022/09/05 11:55:18;;;;;;;4.53;1.60;;;36.10;57.20;;;;;;5015757;28;20079;-82
2022/09/05 11:58:32;;;;;;;2.53;0.98;;;36.60;57.40;;;;;;5031242;28;20053;-82
2022/09/05 12:01:49;;;;;;;3.17;1.35;;;36.50;54.10;;;;;;5032688;28;20049;-81
2022/09/05 12:05:02;;;;;;;6.07;1.42;;;36.50;53.20;;;;;;5031423;28;20041;-82
2022/09/05 12:08:14;;;;;;;6.63;1.90;;;36.40;55.00;;;;;;5031539;28;20049;-81
2022/09/05 12:11:19;;;;;;;4.00;1.25;;;37.20;55.40;;;;;;5013893;28;20144;-84
2022/09/05 12:14:34;;;;;;;2.60;1.35;;;37.60;52.90;;;;;;5032511;28;20514;-81
2022/09/05 12:17:46;;;;;;;3.10;1.60;;;37.70;50.80;;;;;;5031563;28;20140;-82
2022/09/05 12:20:51;;;;;;;3.42;1.27;;;37.50;51.30;;;;;;5030302;28;20041;-81
2022/09/05 12:23:49;;;;;;;4.72;1.60;;;37.70;51.20;;;;;;5031882;28;20091;-81
2022/09/05 12:26:55;;;;;;;3.97;1.20;;;37.90;50.00;;;;;;5016401;28;20509;-82
2022/09/05 12:29:47;;;;;;;3.83;1.35;;;37.80;50.40;;;;;;5031519;28;20294;-81
2022/09/05 12:32:47;;;;;;;4.07;1.45;;;37.90;50.10;;;;;;5032026;28;20045;-84
2022/09/05 12:35:45;;;;;;;4.22;1.33;;;37.70;50.20;;;;;;4999996;28;20058;-80
2022/09/05 12:38:54;;;;;;;4.10;1.40;;;38.20;51.10;;;;;;5012791;28;20588;-82
2022/09/05 12:42:02;;;;;;;4.10;1.52;;;39.30;50.80;;;;;;4999367;28;20056;-79
2022/09/05 12:45:17;;;;;;;2.50;1.48;;;39.40;49.80;;;;;;5012685;28;20505;-83
2022/09/05 12:48:25;;;;;;;2.95;1.40;;;40.40;48.30;;;;;;5029430;28;20049;-86
2022/09/05 12:51:18;;;;;;;3.45;1.60;;;40.10;48.90;;;;;;5031379;28;20049;-80
2022/09/05 12:54:14;;;;;;;3.00;1.33;;;40.60;48.10;;;;;;5031636;28;20045;-81
2022/09/05 12:57:12;;;;;;;4.45;1.70;;;41.20;48.00;;;;;;5031018;28;20095;-83
2022/09/05 13:00:08;;;;;;;3.92;1.98;;;41.70;47.80;;;;;;5017875;28;20041;-81
2022/09/05 13:03:04;;;;;;;3.72;1.63;;;41.70;46.70;;;;;;5037269;28;20045;-84
2022/09/05 13:06:20;;;;;;;4.38;1.65;;;41.60;45.90;;;;;;5020086;28;20417;-81
2022/09/05 13:09:34;;;;;;;7.80;1.70;;;40.70;45.90;;;;;;5021129;28;20053;-81
2022/09/05 13:12:37;;;;;;;3.63;1.65;;;40.70;46.40;;;;;;5009167;28;20045;-82
2022/09/05 13:15:35;;;;;;;3.70;1.73;;;40.50;45.30;;;;;;5036667;28;20524;-84
2022/09/05 13:18:30;;;;;;;7.80;1.80;;;41.00;46.40;;;;;;5022360;28;20559;-83
2022/09/05 13:21:20;;;;;;;3.38;1.92;;;41.10;45.30;;;;;;5022884;28;20803;-86
2022/09/05 13:24:13;;;;;;;6.53;2.30;;;41.30;45.60;;;;;;5019775;28;20076;-84
2022/09/05 13:27:25;;;;;;;4.50;1.60;;;41.80;46.40;;;;;;5037056;28;20041;-80
2022/09/05 13:30:14;;;;;;;2.58;1.50;;;41.90;44.40;;;;;;5008694;28;20053;-80
2022/09/05 13:33:10;;;;;;;7.60;1.73;;;41.70;44.50;;;;;;5009092;28;20045;-81
2022/09/05 13:36:04;;;;;;;4.60;1.77;;;41.50;44.10;;;;;;5037186;28;20041;-89
2022/09/05 13:39:12;;;;;;;4.40;1.92;;;41.00;44.60;;;;;;5036461;28;20038;-92
2022/09/05 13:42:02;;;;;;;4.30;1.75;;;41.50;44.90;;;;;;5019770;28;20046;-84
2022/09/05 13:44:59;;;;;;;4.45;1.70;;;41.90;45.30;;;;;;5019309;28;20144;-87
2022/09/05 13:48:07;;;;;;;3.65;1.67;;;42.10;46.60;;;;;;5039327;28;20524;-81
2022/09/05 13:51:01;;;;;;;5.43;1.58;;;41.90;45.90;;;;;;5036569;28;20037;-85
2022/09/05 13:54:15;;;;;;;6.75;1.73;;;42.10;44.20;;;;;;5036726;28;20048;-83
2022/09/05 13:57:15;;;;;;;5.50;1.73;;;42.20;45.40;;;;;;5036631;28;20079;-83
2022/09/05 14:00:09;;;;;;;4.00;1.75;;;41.60;46.50;;;;;;5037008;28;20042;-81
2022/09/05 14:03:38;;;;;;;8.88;1.80;;;40.80;46.10;;;;;;5036798;28;20045;-82
2022/09/05 14:06:31;;;;;;;5.50;1.90;;;40.90;47.20;;;;;;5036551;28;20084;-82
2022/09/05 14:09:45;;;;;;;;;;;41.30;47.20;;;;;;5037344;28;20045;-84
2022/09/05 14:12:34;;;;;;;2.85;1.70;;;41.00;46.30;;;;;;5034437;28;19921;-82
2022/09/05 14:15:54;;;;;;;3.60;1.60;;;41.60;46.50;;;;;;5020776;28;20414;-83
2022/09/05 14:21:49;;;;;;;6.45;2.15;;;42.30;46.00;;;;;;5034499;28;20056;-89
2022/09/05 14:24:42;;;;;;;7.70;2.28;;;42.90;46.30;;;;;;5035001;28;20056;-80
2022/09/05 14:27:30;;;;;;;5.40;1.93;;;43.40;45.40;;;;;;5035312;28;20049;-84
2022/09/05 14:30:50;;;;;;;9.35;2.83;;;42.40;45.60;;;;;;5034914;28;20119;-82
2022/09/05 14:34:20;;;;;;;5.25;2.20;;;41.60;45.90;;;;;;5032160;28;20151;-89
2022/09/05 14:37:20;;;;;;;6.53;2.33;;;41.70;46.80;;;;;;5026221;28;20111;-84
2022/09/05 14:40:44;;;;;;;4.50;2.10;;;41.70;46.30;;;;;;5019508;28;20547;-87
2022/09/05 14:43:50;;;;;;;5.30;2.08;;;42.40;46.30;;;;;;5002966;28;20045;-81
2022/09/05 14:47:15;;;;;;;4.28;1.83;;;42.90;46.00;;;;;;5035633;28;20053;-81
2022/09/05 14:50:28;;;;;;;5.57;2.03;;;42.90;45.00;;;;;;5033869;28;20136;-81
2022/09/05 14:53:20;;;;;;;4.40;1.83;;;42.10;45.30;;;;;;5004722;28;20144;-81
2022/09/05 14:56:10;;;;;;;4.03;2.00;;;42.50;45.30;;;;;;5017479;28;20524;-86
2022/09/05 14:59:14;;;;;;;7.85;2.35;;;41.90;45.20;;;;;;5039495;28;20119;-80
2022/09/05 15:02:09;;;;;;;4.07;1.60;;;41.70;45.50;;;;;;5019029;28;20049;-80
2022/09/05 15:04:57;;;;;;;7.55;2.17;;;41.60;45.70;;;;;;5015951;28;20049;-86
2022/09/05 15:07:49;;;;;;;7.03;2.42;;;41.00;45.50;;;;;;5032217;28;20045;-82
2022/09/05 15:10:42;;;;;;;5.72;2.15;;;40.90;45.60;;;;;;5032221;28;20137;-85
2022/09/05 15:13:30;;;;;;;4.93;1.75;;;40.50;45.50;;;;;;5019317;28;20111;-86
2022/09/05 15:16:19;;;;;;;9.98;2.33;;;40.40;45.90;;;;;;5017363;28;20096;-81
2022/09/05 15:19:09;;;;;;;5.00;2.08;;;40.10;46.40;;;;;;5035754;28;20061;-82
2022/09/05 15:21:55;;;;;;;6.43;2.00;;;39.90;46.00;;;;;;5015513;28;20048;-81
2022/09/05 15:24:41;;;;;;;5.88;2.08;;;39.10;46.50;;;;;;5033444;28;20049;-84
2022/09/05 15:27:29;;;;;;;5.05;1.80;;;38.90;47.10;;;;;;5023446;28;20042;-80
2022/09/05 15:30:20;;;;;;;5.45;2.15;;;38.50;46.90;;;;;;5042167;28;20057;-79
2022/09/05 15:33:28;;;;;;;5.43;1.92;;;38.40;46.80;;;;;;5038873;28;20049;-80
2022/09/05 15:36:34;;;;;;;5.47;2.00;;;37.60;47.40;;;;;;5001522;28;20148;-86
2022/09/05 15:39:20;;;;;;;7.65;2.20;;;37.80;47.40;;;;;;5032961;28;20079;-85
2022/09/05 15:42:15;;;;;;;4.47;1.88;;;37.50;47.90;;;;;;5014312;28;20045;-81
2022/09/05 15:45:09;;;;;;;7.05;1.77;;;36.90;48.40;;;;;;5016148;28;20049;-83
2022/09/05 15:48:05;;;;;;;4.70;2.08;;;36.00;48.70;;;;;;5013859;28;20057;-83
2022/09/05 15:50:54;;;;;;;6.82;1.90;;;35.30;49.40;;;;;;5032200;28;20379;-81